sensor_id;sensor_type;location;lat;lon;timestamp;P1;durP1;ratioP1;P2;durP2;ratioP2
3979;SDS011;2004;52.452;13.120;2023-01-05T00:05:30;16.20;;;2.50;;
3979;SDS011;2004;52.452;13.120;2023-01-05T00:13:20;9.60;;;2.57;;
3979;SDS011;2004;52.452;13.120;2023-01-05T00:21:29;6.23;;;1.57;;
3979;SDS011;2004;52.452;13.120;2023-01-05T00:29:40;11.53;;;2.23;;
3979;SDS011;2004;52.452;13.120;2023-01-05T00:37:31;11.77;;;2.23;;
3979;SDS011;2004;52.452;13.120;2023-01-05T00:45:22;11.53;;;1.93;;
3979;SDS011;2004;52.452;13.120;2023-01-05T00:53:13;16.50;;;2.50;;
3979;SDS011;2004;52.452;13.120;2023-01-05T01:01:10;11.87;;;2.33;;
3979;SDS011;2004;52.452;13.120;2023-01-05T01:09:01;7.90;;;1.93;;
3979;SDS011;2004;52.452;13.120;2023-01-05T01:16:52;9.57;;;2.20;;
3979;SDS011;2004;52.452;13.120;2023-01-05T01:24:43;8.67;;;2.03;;
3979;SDS011;2004;52.452;13.120;2023-01-05T01:32:34;8.80;;;2.63;;
3979;SDS011;2004;52.452;13.120;2023-01-05T01:40:24;11.70;;;2.07;;
3979;SDS011;2004;52.452;13.120;2023-01-05T01:48:15;15.97;;;1.83;;
3979;SDS011;2004;52.452;13.120;2023-01-05T01:56:08;12.80;;;2.20;;
3979;SDS011;2004;52.452;13.120;2023-01-05T02:04:03;12.37;;;2.07;;
3979;SDS011;2004;52.452;13.120;2023-01-05T02:37:14;3.00;;;1.60;;
3979;SDS011;2004;52.452;13.120;2023-01-05T02:45:06;15.63;;;2.00;;
3979;SDS011;2004;52.452;13.120;2023-01-05T03:01:10;7.97;;;2.20;;
3979;SDS011;2004;52.452;13.120;2023-01-05T03:09:17;5.13;;;1.80;;
3979;SDS011;2004;52.452;13.120;2023-01-05T03:17:09;5.30;;;1.30;;
3979;SDS011;2004;52.452;13.120;2023-01-05T03:25:04;7.27;;;1.97;;
3979;SDS011;2004;52.452;13.120;2023-01-05T03:33:24;10.63;;;2.80;;
3979;SDS011;2004;52.452;13.120;2023-01-05T03:41:42;4.20;;;1.47;;
3979;SDS011;2004;52.452;13.120;2023-01-05T03:49:34;5.57;;;1.60;;
3979;SDS011;2004;52.452;13.120;2023-01-05T03:57:26;6.00;;;1.53;;
3979;SDS011;2004;52.452;13.120;2023-01-05T04:05:16;14.63;;;1.60;;
3979;SDS011;2004;52.452;13.120;2023-01-05T04:13:07;5.83;;;1.77;;
3979;SDS011;2004;52.452;13.120;2023-01-05T04:20:59;5.67;;;2.30;;
3979;SDS011;2004;52.452;13.120;2023-01-05T04:28:50;5.03;;;1.40;;
3979;SDS011;2004;52.452;13.120;2023-01-05T04:36:40;7.43;;;1.70;;
3979;SDS011;2004;52.452;13.120;2023-01-05T04:44:31;15.07;;;2.40;;
3979;SDS011;2004;52.452;13.120;2023-01-05T04:52:22;9.53;;;1.87;;
3979;SDS011;2004;52.452;13.120;2023-01-05T05:00:13;8.77;;;2.00;;
3979;SDS011;2004;52.452;13.120;2023-01-05T05:08:04;10.50;;;1.83;;
3979;SDS011;2004;52.452;13.120;2023-01-05T05:15:55;7.97;;;2.00;;
3979;SDS011;2004;52.452;13.120;2023-01-05T05:23:46;11.40;;;1.40;;
3979;SDS011;2004;52.452;13.120;2023-01-05T05:31:37;15.57;;;1.60;;
3979;SDS011;2004;52.452;13.120;2023-01-05T05:39:27;7.13;;;1.33;;
3979;SDS011;2004;52.452;13.120;2023-01-05T05:47:18;7.10;;;1.40;;
3979;SDS011;2004;52.452;13.120;2023-01-05T05:55:08;2.00;;;1.23;;
3979;SDS011;2004;52.452;13.120;2023-01-05T06:02:59;3.97;;;1.27;;
3979;SDS011;2004;52.452;13.120;2023-01-05T06:10:50;1.90;;;1.00;;
3979;SDS011;2004;52.452;13.120;2023-01-05T06:18:40;2.30;;;1.20;;
3979;SDS011;2004;52.452;13.120;2023-01-05T06:26:31;1.47;;;0.93;;
3979;SDS011;2004;52.452;13.120;2023-01-05T06:34:21;4.63;;;1.23;;
3979;SDS011;2004;52.452;13.120;2023-01-05T06:42:12;3.33;;;1.03;;
3979;SDS011;2004;52.452;13.120;2023-01-05T06:50:04;4.83;;;1.30;;
3979;SDS011;2004;52.452;13.120;2023-01-05T06:57:55;4.97;;;0.80;;
3979;SDS011;2004;52.452;13.120;2023-01-05T07:05:46;4.87;;;1.60;;
3979;SDS011;2004;52.452;13.120;2023-01-05T07:13:36;1.37;;;0.80;;
3979;SDS011;2004;52.452;13.120;2023-01-05T07:21:27;0.93;;;0.60;;
3979;SDS011;2004;52.452;13.120;2023-01-05T07:29:17;1.80;;;0.63;;
3979;SDS011;2004;52.452;13.120;2023-01-05T07:37:08;0.90;;;0.50;;
3979;SDS011;2004;52.452;13.120;2023-01-05T07:45:01;1.33;;;0.60;;
3979;SDS011;2004;52.452;13.120;2023-01-05T07:52:52;0.80;;;0.50;;
3979;SDS011;2004;52.452;13.120;2023-01-05T08:00:43;1.00;;;0.50;;
3979;SDS011;2004;52.452;13.120;2023-01-05T08:08:33;1.80;;;0.50;;
3979;SDS011;2004;52.452;13.120;2023-01-05T08:16:25;1.37;;;0.53;;
3979;SDS011;2004;52.452;13.120;2023-01-05T08:24:17;1.03;;;0.60;;
3979;SDS011;2004;52.452;13.120;2023-01-05T08:32:08;0.90;;;0.57;;
3979;SDS011;2004;52.452;13.120;2023-01-05T08:39:58;2.53;;;0.50;;
3979;SDS011;2004;52.452;13.120;2023-01-05T08:47:53;2.70;;;0.70;;
3979;SDS011;2004;52.452;13.120;2023-01-05T08:55:44;1.73;;;0.60;;
3979;SDS011;2004;52.452;13.120;2023-01-05T09:03:35;1.63;;;0.77;;
3979;SDS011;2004;52.452;13.120;2023-01-05T09:11:26;1.70;;;0.70;;
3979;SDS011;2004;52.452;13.120;2023-01-05T09:19:17;2.20;;;0.70;;
3979;SDS011;2004;52.452;13.120;2023-01-05T09:27:08;1.80;;;1.07;;
3979;SDS011;2004;52.452;13.120;2023-01-05T09:34:59;5.07;;;1.10;;
3979;SDS011;2004;52.452;13.120;2023-01-05T09:42:49;2.00;;;1.80;;
3979;SDS011;2004;52.452;13.120;2023-01-05T09:50:41;2.10;;;1.00;;
3979;SDS011;2004;52.452;13.120;2023-01-05T09:58:35;4.73;;;1.00;;
3979;SDS011;2004;52.452;13.120;2023-01-05T10:06:32;4.97;;;1.93;;
3979;SDS011;2004;52.452;13.120;2023-01-05T10:23:04;10.37;;;1.60;;
3979;SDS011;2004;52.452;13.120;2023-01-05T10:31:01;7.23;;;1.43;;
3979;SDS011;2004;52.452;13.120;2023-01-05T10:47:23;3.10;;;1.10;;
3979;SDS011;2004;52.452;13.120;2023-01-05T10:55:17;4.33;;;0.90;;
3979;SDS011;2004;52.452;13.120;2023-01-05T11:03:11;6.67;;;1.10;;
3979;SDS011;2004;52.452;13.120;2023-01-05T11:11:04;4.27;;;1.10;;
3979;SDS011;2004;52.452;13.120;2023-01-05T11:19:00;6.40;;;1.20;;
3979;SDS011;2004;52.452;13.120;2023-01-05T11:34:48;3.23;;;1.33;;
3979;SDS011;2004;52.452;13.120;2023-01-05T11:42:40;5.90;;;0.70;;
3979;SDS011;2004;52.452;13.120;2023-01-05T11:50:54;2.40;;;0.70;;
3979;SDS011;2004;52.452;13.120;2023-01-05T11:58:46;6.10;;;0.90;;
3979;SDS011;2004;52.452;13.120;2023-01-05T12:39:53;6.50;;;1.00;;
3979;SDS011;2004;52.452;13.120;2023-01-05T12:55:55;1.73;;;1.00;;
3979;SDS011;2004;52.452;13.120;2023-01-05T13:03:53;4.73;;;1.40;;
3979;SDS011;2004;52.452;13.120;2023-01-05T13:12:07;4.50;;;1.40;;
3979;SDS011;2004;52.452;13.120;2023-01-05T13:20:15;4.47;;;1.37;;
3979;SDS011;2004;52.452;13.120;2023-01-05T13:28:16;5.37;;;1.40;;
3979;SDS011;2004;52.452;13.120;2023-01-05T14:00:38;8.30;;;1.90;;
3979;SDS011;2004;52.452;13.120;2023-01-05T14:08:33;6.78;;;1.42;;
3979;SDS011;2004;52.452;13.120;2023-01-05T14:24:48;6.87;;;1.30;;
3979;SDS011;2004;52.452;13.120;2023-01-05T14:32:40;6.68;;;1.85;;
3979;SDS011;2004;52.452;13.120;2023-01-05T14:48:58;7.50;;;1.90;;
3979;SDS011;2004;52.452;13.120;2023-01-05T15:05:14;5.78;;;1.20;;
3979;SDS011;2004;52.452;13.120;2023-01-05T15:13:12;5.90;;;1.50;;
3979;SDS011;2004;52.452;13.120;2023-01-05T15:21:44;6.78;;;1.20;;
3979;SDS011;2004;52.452;13.120;2023-01-05T15:38:40;5.00;;;1.60;;
3979;SDS011;2004;52.452;13.120;2023-01-05T15:46:36;5.03;;;1.80;;
3979;SDS011;2004;52.452;13.120;2023-01-05T15:54:28;6.70;;;1.33;;
3979;SDS011;2004;52.452;13.120;2023-01-05T16:10:23;3.03;;;1.00;;
3979;SDS011;2004;52.452;13.120;2023-01-05T16:18:38;6.30;;;1.40;;
3979;SDS011;2004;52.452;13.120;2023-01-05T16:26:36;2.43;;;0.97;;
3979;SDS011;2004;52.452;13.120;2023-01-05T16:34:28;5.47;;;1.47;;
3979;SDS011;2004;52.452;13.120;2023-01-05T16:42:23;6.70;;;1.20;;
3979;SDS011;2004;52.452;13.120;2023-01-05T17:14:12;7.53;;;1.20;;
3979;SDS011;2004;52.452;13.120;2023-01-05T17:22:04;5.10;;;1.10;;
3979;SDS011;2004;52.452;13.120;2023-01-05T17:29:57;3.27;;;0.90;;
3979;SDS011;2004;52.452;13.120;2023-01-05T17:37:49;3.80;;;0.90;;
3979;SDS011;2004;52.452;13.120;2023-01-05T17:45:40;4.73;;;1.00;;
3979;SDS011;2004;52.452;13.120;2023-01-05T17:53:32;6.30;;;0.87;;
3979;SDS011;2004;52.452;13.120;2023-01-05T18:01:23;4.83;;;1.27;;
3979;SDS011;2004;52.452;13.120;2023-01-05T18:09:13;7.93;;;1.30;;
3979;SDS011;2004;52.452;13.120;2023-01-05T18:17:10;4.77;;;1.77;;
3979;SDS011;2004;52.452;13.120;2023-01-05T18:25:01;5.10;;;1.30;;
3979;SDS011;2004;52.452;13.120;2023-01-05T18:32:52;5.70;;;1.10;;
3979;SDS011;2004;52.452;13.120;2023-01-05T18:40:46;5.13;;;1.73;;
3979;SDS011;2004;52.452;13.120;2023-01-05T18:48:38;7.00;;;2.00;;
3979;SDS011;2004;52.452;13.120;2023-01-05T18:56:29;9.50;;;1.80;;
3979;SDS011;2004;52.452;13.120;2023-01-05T19:04:20;8.67;;;1.87;;
3979;SDS011;2004;52.452;13.120;2023-01-05T19:12:10;2.93;;;0.70;;
3979;SDS011;2004;52.452;13.120;2023-01-05T19:20:01;4.83;;;1.20;;
3979;SDS011;2004;52.452;13.120;2023-01-05T19:27:52;7.23;;;1.17;;
3979;SDS011;2004;52.452;13.120;2023-01-05T19:35:42;10.03;;;1.30;;
3979;SDS011;2004;52.452;13.120;2023-01-05T19:43:34;2.83;;;1.20;;
3979;SDS011;2004;52.452;13.120;2023-01-05T19:51:29;3.37;;;1.20;;
3979;SDS011;2004;52.452;13.120;2023-01-05T19:59:21;5.27;;;1.80;;
3979;SDS011;2004;52.452;13.120;2023-01-05T20:07:21;3.90;;;1.20;;
3979;SDS011;2004;52.452;13.120;2023-01-05T20:15:12;10.00;;;1.90;;
3979;SDS011;2004;52.452;13.120;2023-01-05T20:23:03;7.93;;;2.70;;
3979;SDS011;2004;52.452;13.120;2023-01-05T20:30:54;6.57;;;2.90;;
3979;SDS011;2004;52.452;13.120;2023-01-05T20:38:45;2.40;;;1.60;;
3979;SDS011;2004;52.452;13.120;2023-01-05T20:46:37;4.87;;;2.20;;
3979;SDS011;2004;52.452;13.120;2023-01-05T20:54:32;5.63;;;2.00;;
3979;SDS011;2004;52.452;13.120;2023-01-05T21:02:24;5.40;;;2.07;;
3979;SDS011;2004;52.452;13.120;2023-01-05T21:10:16;4.77;;;2.20;;
3979;SDS011;2004;52.452;13.120;2023-01-05T21:18:06;8.97;;;2.83;;
3979;SDS011;2004;52.452;13.120;2023-01-05T21:25:57;7.87;;;4.63;;
3979;SDS011;2004;52.452;13.120;2023-01-05T21:33:49;6.50;;;4.23;;
3979;SDS011;2004;52.452;13.120;2023-01-05T21:41:41;5.83;;;3.33;;
3979;SDS011;2004;52.452;13.120;2023-01-05T21:49:50;6.10;;;3.43;;
3979;SDS011;2004;52.452;13.120;2023-01-05T21:57:41;7.77;;;2.77;;
3979;SDS011;2004;52.452;13.120;2023-01-05T22:05:31;10.47;;;2.90;;
3979;SDS011;2004;52.452;13.120;2023-01-05T22:13:22;7.50;;;3.07;;
3979;SDS011;2004;52.452;13.120;2023-01-05T22:21:17;6.87;;;3.97;;
3979;SDS011;2004;52.452;13.120;2023-01-05T22:29:09;4.90;;;2.90;;
3979;SDS011;2004;52.452;13.120;2023-01-05T22:36:59;6.50;;;2.80;;
3979;SDS011;2004;52.452;13.120;2023-01-05T22:44:51;4.90;;;2.00;;
3979;SDS011;2004;52.452;13.120;2023-01-05T22:52:42;5.03;;;2.17;;
3979;SDS011;2004;52.452;13.120;2023-01-05T23:00:34;7.30;;;2.47;;
3979;SDS011;2004;52.452;13.120;2023-01-05T23:08:24;3.90;;;2.03;;
3979;SDS011;2004;52.452;13.120;2023-01-05T23:16:15;2.13;;;1.90;;
3979;SDS011;2004;52.452;13.120;2023-01-05T23:23:59;2.20;;;2.00;;
3979;SDS011;2004;52.452;13.120;2023-01-05T23:31:50;6.10;;;2.93;;
3979;SDS011;2004;52.452;13.120;2023-01-05T23:39:41;11.00;;;3.57;;
3979;SDS011;2004;52.452;13.120;2023-01-05T23:47:32;4.87;;;3.03;;
3979;SDS011;2004;52.452;13.120;2023-01-05T23:55:22;5.73;;;3.00;;
